sensor_id;sensor_type;location;lat;lon;timestamp;pressure;altitude;pressure_sealevel;temperature;humidity
41632;BME280;37452;51.938;4.624;2023-04-28T00:01:29;77397.13;;;-142.75;97.40
41632;BME280;37452;51.938;4.624;2023-04-28T00:03:55;77389.25;;;-142.75;98.47
41632;BME280;37452;51.938;4.624;2023-04-28T00:06:21;77397.13;;;-142.75;99.65
41632;BME280;37452;51.938;4.624;2023-04-28T00:08:46;77399.09;;;-142.75;99.18
41632;BME280;37452;51.938;4.624;2023-04-28T00:11:12;77397.13;;;-142.75;100.00
41632;BME280;37452;51.938;4.624;2023-04-28T00:13:37;77410.91;;;-142.75;100.00
41632;BME280;37452;51.938;4.624;2023-04-28T00:16:03;77414.84;;;-142.75;100.00
41632;BME280;37452;51.938;4.624;2023-04-28T00:18:28;77414.84;;;-142.75;100.00
41632;BME280;37452;51.938;4.624;2023-04-28T00:20:54;77405.00;;;-142.75;100.00
41632;BME280;37452;51.938;4.624;2023-04-28T00:23:19;77410.91;;;-142.75;100.00
41632;BME280;37452;51.938;4.624;2023-04-28T00:25:49;77416.81;;;-142.75;100.00
41632;BME280;37452;51.938;4.624;2023-04-28T00:28:14;77397.13;;;-142.75;100.00
41632;BME280;37452;51.938;4.624;2023-04-28T00:30:39;77399.09;;;-142.75;100.00
41632;BME280;37452;51.938;4.624;2023-04-28T00:33:05;77383.34;;;-142.75;100.00
41632;BME280;37452;51.938;4.624;2023-04-28T00:35:30;77387.28;;;-142.75;100.00
41632;BME280;37452;51.938;4.624;2023-04-28T00:37:55;77383.34;;;-142.75;100.00
41632;BME280;37452;51.938;4.624;2023-04-28T00:40:21;77381.38;;;-142.75;100.00
41632;BME280;37452;51.938;4.624;2023-04-28T00:42:46;77389.25;;;-142.75;100.00
41632;BME280;37452;51.938;4.624;2023-04-28T00:45:11;77377.44;;;-142.75;100.00
41632;BME280;37452;51.938;4.624;2023-04-28T00:47:36;77393.19;;;-142.75;100.00
41632;BME280;37452;51.938;4.624;2023-04-28T00:50:05;77381.38;;;-142.75;100.00
41632;BME280;37452;51.938;4.624;2023-04-28T00:52:30;77373.50;;;-142.75;100.00
41632;BME280;37452;51.938;4.624;2023-04-28T00:54:56;77369.56;;;-142.75;100.00
41632;BME280;37452;51.938;4.624;2023-04-28T00:57:21;77381.38;;;-142.75;100.00
41632;BME280;37452;51.938;4.624;2023-04-28T00:59:47;77373.50;;;-142.75;100.00
41632;BME280;37452;51.938;4.624;2023-04-28T01:02:12;77373.50;;;-142.75;100.00
41632;BME280;37452;51.938;4.624;2023-04-28T01:04:41;77377.44;;;-142.75;100.00
41632;BME280;37452;51.938;4.624;2023-04-28T01:07:07;77371.53;;;-142.75;100.00
41632;BME280;37452;51.938;4.624;2023-04-28T01:09:33;77369.56;;;-142.75;100.00
41632;BME280;37452;51.938;4.624;2023-04-28T01:11:58;77369.56;;;-142.75;100.00
41632;BME280;37452;51.938;4.624;2023-04-28T01:14:24;77377.44;;;-142.75;100.00
41632;BME280;37452;51.938;4.624;2023-04-28T01:16:49;77371.53;;;-142.75;100.00
41632;BME280;37452;51.938;4.624;2023-04-28T01:19:16;77359.72;;;-142.75;100.00
41632;BME280;37452;51.938;4.624;2023-04-28T01:21:43;77361.69;;;-142.75;100.00
41632;BME280;37452;51.938;4.624;2023-04-28T01:24:09;77338.06;;;-142.75;100.00
41632;BME280;37452;51.938;4.624;2023-04-28T01:26:34;77349.88;;;-142.75;100.00
41632;BME280;37452;51.938;4.624;2023-04-28T01:29:00;77361.69;;;-142.75;100.00
41632;BME280;37452;51.938;4.624;2023-04-28T01:31:25;77353.81;;;-142.75;100.00
41632;BME280;37452;51.938;4.624;2023-04-28T01:33:50;77353.81;;;-142.75;100.00
41632;BME280;37452;51.938;4.624;2023-04-28T01:36:15;77357.75;;;-142.75;100.00
41632;BME280;37452;51.938;4.624;2023-04-28T01:38:41;77361.69;;;-142.75;100.00
41632;BME280;37452;51.938;4.624;2023-04-28T01:41:06;77365.63;;;-142.75;100.00
41632;BME280;37452;51.938;4.624;2023-04-28T01:43:31;77353.81;;;-142.75;100.00
41632;BME280;37452;51.938;4.624;2023-04-28T01:45:56;77342.00;;;-142.75;100.00
41632;BME280;37452;51.938;4.624;2023-04-28T01:48:21;77343.97;;;-142.75;100.00
41632;BME280;37452;51.938;4.624;2023-04-28T01:50:47;77338.06;;;-142.75;100.00
41632;BME280;37452;51.938;4.624;2023-04-28T01:53:12;77342.00;;;-142.75;100.00
41632;BME280;37452;51.938;4.624;2023-04-28T01:55:38;77353.81;;;-142.75;100.00
41632;BME280;37452;51.938;4.624;2023-04-28T01:58:03;77349.88;;;-142.75;100.00
41632;BME280;37452;51.938;4.624;2023-04-28T02:00:29;77338.06;;;-142.75;100.00
41632;BME280;37452;51.938;4.624;2023-04-28T02:02:54;77353.81;;;-142.75;100.00
41632;BME280;37452;51.938;4.624;2023-04-28T02:05:19;77357.75;;;-142.75;100.00
41632;BME280;37452;51.938;4.624;2023-04-28T02:07:45;77342.00;;;-142.75;100.00
41632;BME280;37452;51.938;4.624;2023-04-28T02:10:10;77353.81;;;-142.75;100.00
41632;BME280;37452;51.938;4.624;2023-04-28T02:12:36;77324.28;;;-142.75;100.00
41632;BME280;37452;51.938;4.624;2023-04-28T02:15:01;77322.31;;;-142.75;100.00
41632;BME280;37452;51.938;4.624;2023-04-28T02:17:28;77316.41;;;-142.75;100.00
41632;BME280;37452;51.938;4.624;2023-04-28T02:19:54;77314.44;;;-142.75;100.00
41632;BME280;37452;51.938;4.624;2023-04-28T02:22:20;77314.44;;;-142.75;100.00
41632;BME280;37452;51.938;4.624;2023-04-28T02:24:45;77318.38;;;-142.75;100.00
41632;BME280;37452;51.938;4.624;2023-04-28T02:27:11;77310.50;;;-142.75;100.00
41632;BME280;37452;51.938;4.624;2023-04-28T02:29:37;77310.50;;;-142.75;100.00
41632;BME280;37452;51.938;4.624;2023-04-28T02:32:02;77304.59;;;-142.75;100.00
41632;BME280;37452;51.938;4.624;2023-04-28T02:34:28;77310.50;;;-142.75;100.00
41632;BME280;37452;51.938;4.624;2023-04-28T02:36:53;77304.59;;;-142.75;100.00
41632;BME280;37452;51.938;4.624;2023-04-28T02:39:18;77310.50;;;-142.75;100.00
41632;BME280;37452;51.938;4.624;2023-04-28T02:41:45;77312.47;;;-142.75;100.00
41632;BME280;37452;51.938;4.624;2023-04-28T02:44:11;77304.59;;;-142.75;100.00
41632;BME280;37452;51.938;4.624;2023-04-28T02:46:36;77300.66;;;-142.75;100.00
41632;BME280;37452;51.938;4.624;2023-04-28T02:49:01;77294.75;;;-142.75;100.00
41632;BME280;37452;51.938;4.624;2023-04-28T02:51:26;77296.72;;;-142.75;100.00
41632;BME280;37452;51.938;4.624;2023-04-28T02:53:52;77302.63;;;-142.75;100.00
41632;BME280;37452;51.938;4.624;2023-04-28T02:56:17;77310.50;;;-142.75;100.00
41632;BME280;37452;51.938;4.624;2023-04-28T02:58:43;77302.63;;;-142.75;100.00
41632;BME280;37452;51.938;4.624;2023-04-28T03:01:08;77302.63;;;-142.75;100.00
41632;BME280;37452;51.938;4.624;2023-04-28T03:03:33;77296.72;;;-142.75;100.00
41632;BME280;37452;51.938;4.624;2023-04-28T03:05:58;77318.38;;;-142.75;100.00
41632;BME280;37452;51.938;4.624;2023-04-28T03:08:23;77322.31;;;-142.75;100.00
41632;BME280;37452;51.938;4.624;2023-04-28T03:10:49;77336.09;;;-142.75;100.00
41632;BME280;37452;51.938;4.624;2023-04-28T03:13:14;77345.94;;;-142.75;100.00
41632;BME280;37452;51.938;4.624;2023-04-28T03:15:39;77328.22;;;-142.75;100.00
41632;BME280;37452;51.938;4.624;2023-04-28T03:18:05;77318.38;;;-142.75;100.00
41632;BME280;37452;51.938;4.624;2023-04-28T03:20:30;77304.59;;;-142.75;100.00
41632;BME280;37452;51.938;4.624;2023-04-28T03:22:55;77314.44;;;-142.75;100.00
41632;BME280;37452;51.938;4.624;2023-04-28T03:25:20;77300.66;;;-142.75;100.00
41632;BME280;37452;51.938;4.624;2023-04-28T03:27:45;77308.53;;;-142.75;100.00
41632;BME280;37452;51.938;4.624;2023-04-28T03:30:11;77306.56;;;-142.75;100.00
41632;BME280;37452;51.938;4.624;2023-04-28T03:32:36;77310.50;;;-142.75;100.00
41632;BME280;37452;51.938;4.624;2023-04-28T03:35:01;77318.38;;;-142.75;100.00
41632;BME280;37452;51.938;4.624;2023-04-28T03:37:26;77322.31;;;-142.75;100.00
41632;BME280;37452;51.938;4.624;2023-04-28T03:39:52;77314.44;;;-142.75;100.00
41632;BME280;37452;51.938;4.624;2023-04-28T03:42:17;77312.47;;;-142.75;100.00
41632;BME280;37452;51.938;4.624;2023-04-28T03:44:42;77302.63;;;-142.75;100.00
41632;BME280;37452;51.938;4.624;2023-04-28T03:47:07;77308.53;;;-142.75;100.00
41632;BME280;37452;51.938;4.624;2023-04-28T03:49:33;77302.63;;;-142.75;100.00
41632;BME280;37452;51.938;4.624;2023-04-28T03:51:58;77296.72;;;-142.75;100.00
41632;BME280;37452;51.938;4.624;2023-04-28T03:54:23;77298.69;;;-142.75;100.00
41632;BME280;37452;51.938;4.624;2023-04-28T03:56:48;77290.81;;;-142.75;100.00
41632;BME280;37452;51.938;4.624;2023-04-28T03:59:14;77290.81;;;-142.75;100.00
41632;BME280;37452;51.938;4.624;2023-04-28T04:01:39;77310.50;;;-142.75;100.00
41632;BME280;37452;51.938;4.624;2023-04-28T04:04:05;77302.63;;;-142.75;100.00
41632;BME280;37452;51.938;4.624;2023-04-28T04:06:30;77306.56;;;-142.75;100.00
41632;BME280;37452;51.938;4.624;2023-04-28T04:08:56;77308.53;;;-142.75;100.00
41632;BME280;37452;51.938;4.624;2023-04-28T04:11:21;77290.81;;;-142.75;100.00
41632;BME280;37452;51.938;4.624;2023-04-28T04:13:46;77294.75;;;-142.75;100.00
41632;BME280;37452;51.938;4.624;2023-04-28T04:16:12;77294.75;;;-142.75;100.00
41632;BME280;37452;51.938;4.624;2023-04-28T04:18:39;77286.88;;;-142.75;100.00
41632;BME280;37452;51.938;4.624;2023-04-28T04:21:05;77284.91;;;-142.75;100.00
41632;BME280;37452;51.938;4.624;2023-04-28T04:23:30;77277.03;;;-142.75;100.00
41632;BME280;37452;51.938;4.624;2023-04-28T04:25:55;77282.94;;;-142.75;100.00
41632;BME280;37452;51.938;4.624;2023-04-28T04:28:20;77282.94;;;-142.75;100.00
41632;BME280;37452;51.938;4.624;2023-04-28T04:30:45;77279.00;;;-142.75;100.00
41632;BME280;37452;51.938;4.624;2023-04-28T04:33:11;77271.13;;;-142.75;100.00
41632;BME280;37452;51.938;4.624;2023-04-28T04:35:37;77269.16;;;-142.75;100.00
41632;BME280;37452;51.938;4.624;2023-04-28T04:38:02;77282.94;;;-142.75;100.00
41632;BME280;37452;51.938;4.624;2023-04-28T04:40:27;77265.22;;;-142.75;100.00
41632;BME280;37452;51.938;4.624;2023-04-28T04:42:52;77267.19;;;-142.75;100.00
41632;BME280;37452;51.938;4.624;2023-04-28T04:45:17;77271.13;;;-142.75;100.00
41632;BME280;37452;51.938;4.624;2023-04-28T04:47:43;77253.41;;;-142.75;100.00
41632;BME280;37452;51.938;4.624;2023-04-28T04:50:09;77249.47;;;-142.75;100.00
41632;BME280;37452;51.938;4.624;2023-04-28T04:52:34;77245.53;;;-142.75;100.00
41632;BME280;37452;51.938;4.624;2023-04-28T04:55:00;77239.63;;;-142.75;100.00
41632;BME280;37452;51.938;4.624;2023-04-28T04:57:25;77227.81;;;-142.75;100.00
41632;BME280;37452;51.938;4.624;2023-04-28T04:59:51;77225.84;;;-142.75;100.00
41632;BME280;37452;51.938;4.624;2023-04-28T05:02:16;77227.81;;;-142.75;100.00
41632;BME280;37452;51.938;4.624;2023-04-28T05:04:41;77223.88;;;-142.75;100.00
41632;BME280;37452;51.938;4.624;2023-04-28T05:07:06;77219.94;;;-142.75;100.00
41632;BME280;37452;51.938;4.624;2023-04-28T05:09:32;77221.91;;;-142.75;100.00
41632;BME280;37452;51.938;4.624;2023-04-28T05:11:57;77229.78;;;-142.75;100.00
41632;BME280;37452;51.938;4.624;2023-04-28T05:14:23;77233.72;;;-142.75;100.00
41632;BME280;37452;51.938;4.624;2023-04-28T05:16:48;77227.81;;;-142.75;100.00
41632;BME280;37452;51.938;4.624;2023-04-28T05:19:13;77225.84;;;-142.75;100.00
41632;BME280;37452;51.938;4.624;2023-04-28T05:21:38;77219.94;;;-142.75;100.00
41632;BME280;37452;51.938;4.624;2023-04-28T05:24:04;77239.63;;;-142.75;100.00
41632;BME280;37452;51.938;4.624;2023-04-28T05:26:30;77227.81;;;-142.75;100.00
41632;BME280;37452;51.938;4.624;2023-04-28T05:28:55;77235.69;;;-142.75;100.00
41632;BME280;37452;51.938;4.624;2023-04-28T05:31:20;77229.78;;;-142.75;100.00
41632;BME280;37452;51.938;4.624;2023-04-28T05:33:45;77216.00;;;-142.75;100.00
41632;BME280;37452;51.938;4.624;2023-04-28T05:36:11;77196.31;;;-142.75;100.00
41632;BME280;37452;51.938;4.624;2023-04-28T05:38:36;77192.38;;;-142.75;100.00
41632;BME280;37452;51.938;4.624;2023-04-28T05:41:02;77219.94;;;-142.75;100.00
41632;BME280;37452;51.938;4.624;2023-04-28T05:43:27;77216.00;;;-142.75;100.00
41632;BME280;37452;51.938;4.624;2023-04-28T05:45:52;77219.94;;;-142.75;100.00
41632;BME280;37452;51.938;4.624;2023-04-28T05:48:17;77223.88;;;-142.75;100.00
41632;BME280;37452;51.938;4.624;2023-04-28T05:50:43;77227.81;;;-142.75;100.00
41632;BME280;37452;51.938;4.624;2023-04-28T05:53:08;77217.97;;;-142.75;100.00
41632;BME280;37452;51.938;4.624;2023-04-28T05:55:33;77206.16;;;-142.75;100.00
41632;BME280;37452;51.938;4.624;2023-04-28T05:58:00;77188.44;;;-142.75;100.00
41632;BME280;37452;51.938;4.624;2023-04-28T06:00:25;77176.63;;;-142.75;100.00
41632;BME280;37452;51.938;4.624;2023-04-28T06:02:51;77174.66;;;-142.75;100.00
41632;BME280;37452;51.938;4.624;2023-04-28T06:05:16;77172.69;;;-142.75;100.00
41632;BME280;37452;51.938;4.624;2023-04-28T06:07:41;77168.75;;;-142.75;100.00
41632;BME280;37452;51.938;4.624;2023-04-28T06:10:07;77156.94;;;-142.75;100.00
41632;BME280;37452;51.938;4.624;2023-04-28T06:12:32;77154.97;;;-142.75;100.00
41632;BME280;37452;51.938;4.624;2023-04-28T06:14:57;77162.84;;;-142.75;100.00
41632;BME280;37452;51.938;4.624;2023-04-28T06:17:23;77164.81;;;-142.75;100.00
41632;BME280;37452;51.938;4.624;2023-04-28T06:19:48;77153.00;;;-142.75;100.00
41632;BME280;37452;51.938;4.624;2023-04-28T06:22:15;77153.00;;;-142.75;100.00
41632;BME280;37452;51.938;4.624;2023-04-28T06:24:40;77149.06;;;-142.75;100.00
41632;BME280;37452;51.938;4.624;2023-04-28T06:27:05;77151.03;;;-142.75;100.00
41632;BME280;37452;51.938;4.624;2023-04-28T06:29:31;77156.94;;;-142.75;100.00
41632;BME280;37452;51.938;4.624;2023-04-28T06:31:56;77143.16;;;-142.75;100.00
41632;BME280;37452;51.938;4.624;2023-04-28T06:34:25;77129.38;;;-142.75;100.00
41632;BME280;37452;51.938;4.624;2023-04-28T06:36:54;77113.63;;;-142.75;100.00
41632;BME280;37452;51.938;4.624;2023-04-28T06:39:20;77111.66;;;-142.75;100.00
41632;BME280;37452;51.938;4.624;2023-04-28T06:41:46;77105.75;;;-142.75;100.00
41632;BME280;37452;51.938;4.624;2023-04-28T06:44:11;77086.06;;;-142.75;100.00
41632;BME280;37452;51.938;4.624;2023-04-28T06:46:37;77082.13;;;-142.75;100.00
41632;BME280;37452;51.938;4.624;2023-04-28T06:49:02;77078.19;;;-142.75;100.00
41632;BME280;37452;51.938;4.624;2023-04-28T06:51:27;77066.38;;;-142.75;100.00
41632;BME280;37452;51.938;4.624;2023-04-28T06:53:53;77040.78;;;-142.75;100.00
41632;BME280;37452;51.938;4.624;2023-04-28T06:56:18;77040.78;;;-142.75;100.00
41632;BME280;37452;51.938;4.624;2023-04-28T06:58:44;77034.88;;;-142.75;100.00
41632;BME280;37452;51.938;4.624;2023-04-28T07:01:09;77030.94;;;-142.75;100.00
41632;BME280;37452;51.938;4.624;2023-04-28T07:03:34;77017.16;;;-142.75;100.00
41632;BME280;37452;51.938;4.624;2023-04-28T07:06:00;77007.31;;;-142.75;100.00
41632;BME280;37452;51.938;4.624;2023-04-28T07:08:25;77001.41;;;-142.75;100.00
41632;BME280;37452;51.938;4.624;2023-04-28T07:10:50;76991.56;;;-142.75;100.00
41632;BME280;37452;51.938;4.624;2023-04-28T07:13:16;76991.56;;;-142.75;100.00
41632;BME280;37452;51.938;4.624;2023-04-28T07:15:41;76973.84;;;-142.75;100.00
41632;BME280;37452;51.938;4.624;2023-04-28T07:18:06;76952.19;;;-142.75;100.00
41632;BME280;37452;51.938;4.624;2023-04-28T07:20:31;76942.34;;;-142.75;100.00
41632;BME280;37452;51.938;4.624;2023-04-28T07:22:57;76936.44;;;-142.75;100.00
41632;BME280;37452;51.938;4.624;2023-04-28T07:25:22;76928.56;;;-142.75;100.00
41632;BME280;37452;51.938;4.624;2023-04-28T07:27:47;76904.94;;;-142.75;100.00
41632;BME280;37452;51.938;4.624;2023-04-28T07:30:12;76904.94;;;-142.75;100.00
41632;BME280;37452;51.938;4.624;2023-04-28T07:32:38;76883.28;;;-142.75;100.00
41632;BME280;37452;51.938;4.624;2023-04-28T07:35:03;76863.59;;;-142.75;100.00
41632;BME280;37452;51.938;4.624;2023-04-28T07:37:29;76845.88;;;-142.75;100.00
41632;BME280;37452;51.938;4.624;2023-04-28T07:39:55;76818.31;;;-142.75;100.00
41632;BME280;37452;51.938;4.624;2023-04-28T07:42:20;76802.56;;;-142.75;100.00
41632;BME280;37452;51.938;4.624;2023-04-28T07:44:45;76796.69;;;-142.75;100.00
41632;BME280;37452;51.938;4.624;2023-04-28T07:47:11;76784.88;;;-142.75;100.00
41632;BME280;37452;51.938;4.624;2023-04-28T07:49:36;76782.91;;;-142.75;100.00
41632;BME280;37452;51.938;4.624;2023-04-28T07:52:01;76765.19;;;-142.75;100.00
41632;BME280;37452;51.938;4.624;2023-04-28T07:54:26;76759.28;;;-142.75;100.00
41632;BME280;37452;51.938;4.624;2023-04-28T07:56:52;76763.22;;;-142.75;100.00
41632;BME280;37452;51.938;4.624;2023-04-28T07:59:17;76743.53;;;-142.75;100.00
41632;BME280;37452;51.938;4.624;2023-04-28T08:01:42;76743.53;;;-142.75;100.00
41632;BME280;37452;51.938;4.624;2023-04-28T08:04:07;76723.84;;;-142.75;100.00
41632;BME280;37452;51.938;4.624;2023-04-28T08:06:33;76708.09;;;-142.75;100.00
41632;BME280;37452;51.938;4.624;2023-04-28T08:09:00;76686.44;;;-142.75;100.00
41632;BME280;37452;51.938;4.624;2023-04-28T08:11:26;76692.34;;;-142.75;100.00
41632;BME280;37452;51.938;4.624;2023-04-28T08:13:51;76686.44;;;-142.75;100.00
41632;BME280;37452;51.938;4.624;2023-04-28T08:16:17;76686.44;;;-142.75;100.00
41632;BME280;37452;51.938;4.624;2023-04-28T08:18:43;76676.59;;;-142.75;100.00
41632;BME280;37452;51.938;4.624;2023-04-28T08:21:09;76647.06;;;-142.75;100.00
41632;BME280;37452;51.938;4.624;2023-04-28T08:23:35;76645.09;;;-142.75;100.00
41632;BME280;37452;51.938;4.624;2023-04-28T08:26:00;76623.44;;;-142.75;100.00
41632;BME280;37452;51.938;4.624;2023-04-28T08:28:26;76613.59;;;-142.75;100.00
41632;BME280;37452;51.938;4.624;2023-04-28T08:30:51;76617.53;;;-142.75;100.00
41632;BME280;37452;51.938;4.624;2023-04-28T08:33:17;76609.66;;;-142.75;100.00
41632;BME280;37452;51.938;4.624;2023-04-28T08:35:42;76591.94;;;-142.75;100.00
41632;BME280;37452;51.938;4.624;2023-04-28T08:38:07;76572.25;;;-142.75;100.00
41632;BME280;37452;51.938;4.624;2023-04-28T08:40:37;76570.28;;;-142.75;100.00
41632;BME280;37452;51.938;4.624;2023-04-28T08:43:03;76566.34;;;-142.75;100.00
41632;BME280;37452;51.938;4.624;2023-04-28T08:45:28;76550.59;;;-142.75;100.00
41632;BME280;37452;51.938;4.624;2023-04-28T08:47:54;76542.72;;;-142.75;100.00
41632;BME280;37452;51.938;4.624;2023-04-28T08:50:21;76544.69;;;-142.75;100.00
41632;BME280;37452;51.938;4.624;2023-04-28T08:52:49;76530.91;;;-142.75;100.00
41632;BME280;37452;51.938;4.624;2023-04-28T08:55:16;76528.97;;;-142.75;100.00
41632;BME280;37452;51.938;4.624;2023-04-28T08:57:43;76511.25;;;-142.75;100.00
41632;BME280;37452;51.938;4.624;2023-04-28T09:00:09;76505.34;;;-142.75;100.00
41632;BME280;37452;51.938;4.624;2023-04-28T09:02:34;76507.31;;;-142.75;100.00
41632;BME280;37452;51.938;4.624;2023-04-28T09:05:01;76499.44;;;-142.75;100.00
41632;BME280;37452;51.938;4.624;2023-04-28T09:07:27;76473.84;;;-142.75;100.00
41632;BME280;37452;51.938;4.624;2023-04-28T09:10:08;76465.97;;;-142.75;100.00
41632;BME280;37452;51.938;4.624;2023-04-28T09:12:37;76446.28;;;-142.75;100.00
41632;BME280;37452;51.938;4.624;2023-04-28T09:15:02;76438.41;;;-142.75;100.00
41632;BME280;37452;51.938;4.624;2023-04-28T09:17:33;76420.69;;;-142.75;100.00
41632;BME280;37452;51.938;4.624;2023-04-28T09:20:23;76430.53;;;-142.75;100.00
41632;BME280;37452;51.938;4.624;2023-04-28T09:22:49;76404.94;;;-142.75;100.00
41632;BME280;37452;51.938;4.624;2023-04-28T09:25:15;76401.00;;;-142.75;100.00
41632;BME280;37452;51.938;4.624;2023-04-28T09:27:41;76397.06;;;-142.75;100.00
41632;BME280;37452;51.938;4.624;2023-04-28T09:30:06;76373.44;;;-142.75;100.00
41632;BME280;37452;51.938;4.624;2023-04-28T09:32:32;76353.78;;;-142.75;100.00
41632;BME280;37452;51.938;4.624;2023-04-28T09:34:57;76341.97;;;-142.75;100.00
41632;BME280;37452;51.938;4.624;2023-04-28T09:37:24;76310.47;;;-142.75;100.00
41632;BME280;37452;51.938;4.624;2023-04-28T09:39:50;76300.63;;;-142.75;100.00
41632;BME280;37452;51.938;4.624;2023-04-28T09:42:34;76294.72;;;-142.75;100.00
41632;BME280;37452;51.938;4.624;2023-04-28T09:45:00;76286.84;;;-142.75;100.00
41632;BME280;37452;51.938;4.624;2023-04-28T09:47:27;76286.84;;;-142.75;100.00
41632;BME280;37452;51.938;4.624;2023-04-28T09:49:55;76284.88;;;-142.75;100.00
41632;BME280;37452;51.938;4.624;2023-04-28T09:52:24;76259.28;;;-142.75;100.00
41632;BME280;37452;51.938;4.624;2023-04-28T09:54:50;76259.28;;;-142.75;100.00
41632;BME280;37452;51.938;4.624;2023-04-28T09:57:15;76229.75;;;-142.75;100.00
41632;BME280;37452;51.938;4.624;2023-04-28T09:59:41;76233.69;;;-142.75;100.00
41632;BME280;37452;51.938;4.624;2023-04-28T10:02:10;76217.94;;;-142.75;100.00
41632;BME280;37452;51.938;4.624;2023-04-28T10:04:36;76206.13;;;-142.75;100.00
41632;BME280;37452;51.938;4.624;2023-04-28T10:07:02;76204.16;;;-142.75;100.00
41632;BME280;37452;51.938;4.624;2023-04-28T10:09:27;76194.34;;;-142.75;100.00
41632;BME280;37452;51.938;4.624;2023-04-28T10:11:53;76204.16;;;-142.75;100.00
41632;BME280;37452;51.938;4.624;2023-04-28T10:14:18;76227.78;;;-142.75;100.00
41632;BME280;37452;51.938;4.624;2023-04-28T10:16:44;76253.38;;;-142.75;100.00
41632;BME280;37452;51.938;4.624;2023-04-28T10:19:09;76277.00;;;-142.75;100.00
41632;BME280;37452;51.938;4.624;2023-04-28T10:21:35;76275.03;;;-142.75;100.00
41632;BME280;37452;51.938;4.624;2023-04-28T10:24:09;76277.00;;;-142.75;100.00
41632;BME280;37452;51.938;4.624;2023-04-28T10:29:15;76255.34;;;-142.75;100.00
41632;BME280;37452;51.938;4.624;2023-04-28T10:32:12;76245.50;;;-142.75;100.00
41632;BME280;37452;51.938;4.624;2023-04-28T10:34:26;76241.56;;;-142.75;100.00
41632;BME280;37452;51.938;4.624;2023-04-28T10:36:53;76255.34;;;-142.75;100.00
41632;BME280;37452;51.938;4.624;2023-04-28T10:39:19;76255.34;;;-142.75;100.00
41632;BME280;37452;51.938;4.624;2023-04-28T10:41:45;76257.31;;;-142.75;100.00
41632;BME280;37452;51.938;4.624;2023-04-28T10:44:56;76229.75;;;-142.75;100.00
41632;BME280;37452;51.938;4.624;2023-04-28T10:47:00;76204.16;;;-142.75;100.00
41632;BME280;37452;51.938;4.624;2023-04-28T10:55:25;76221.88;;;-142.75;100.00
41632;BME280;37452;51.938;4.624;2023-04-28T10:57:42;76257.31;;;-142.75;100.00
41632;BME280;37452;51.938;4.624;2023-04-28T11:00:26;76286.84;;;-142.75;100.00
41632;BME280;37452;51.938;4.624;2023-04-28T11:02:52;76269.13;;;-142.75;100.00
41632;BME280;37452;51.938;4.624;2023-04-28T11:05:18;76259.28;;;-142.75;100.00
41632;BME280;37452;51.938;4.624;2023-04-28T11:10:32;76275.03;;;-142.75;100.00
41632;BME280;37452;51.938;4.624;2023-04-28T11:13:25;76282.91;;;-142.75;100.00
41632;BME280;37452;51.938;4.624;2023-04-28T11:16:03;76265.19;;;-142.75;100.00
41632;BME280;37452;51.938;4.624;2023-04-28T11:18:30;76259.28;;;-142.75;100.00
41632;BME280;37452;51.938;4.624;2023-04-28T11:20:57;76261.25;;;-142.75;100.00
41632;BME280;37452;51.938;4.624;2023-04-28T11:23:23;76243.53;;;-142.75;100.00
41632;BME280;37452;51.938;4.624;2023-04-28T11:25:52;76247.47;;;-142.75;100.00
41632;BME280;37452;51.938;4.624;2023-04-28T11:28:17;76239.59;;;-142.75;100.00
41632;BME280;37452;51.938;4.624;2023-04-28T11:30:42;76237.63;;;-142.75;100.00
41632;BME280;37452;51.938;4.624;2023-04-28T11:33:08;76239.59;;;-142.75;100.00
41632;BME280;37452;51.938;4.624;2023-04-28T11:35:40;76255.34;;;-142.75;100.00
41632;BME280;37452;51.938;4.624;2023-04-28T11:38:05;76247.47;;;-142.75;100.00
41632;BME280;37452;51.938;4.624;2023-04-28T11:40:30;76251.41;;;-142.75;100.00
41632;BME280;37452;51.938;4.624;2023-04-28T11:42:56;76231.72;;;-142.75;100.00
41632;BME280;37452;51.938;4.624;2023-04-28T11:45:23;76235.66;;;-142.75;100.00
41632;BME280;37452;51.938;4.624;2023-04-28T11:47:48;76239.59;;;-142.75;100.00
41632;BME280;37452;51.938;4.624;2023-04-28T11:50:14;76227.78;;;-142.75;100.00
41632;BME280;37452;51.938;4.624;2023-04-28T11:52:49;76198.28;;;-142.75;100.00
41632;BME280;37452;51.938;4.624;2023-04-28T11:55:15;76215.97;;;-142.75;100.00
41632;BME280;37452;51.938;4.624;2023-04-28T11:57:41;76200.25;;;-142.75;100.00
41632;BME280;37452;51.938;4.624;2023-04-28T12:00:12;76204.16;;;-142.75;100.00
41632;BME280;37452;51.938;4.624;2023-04-28T12:02:38;76215.97;;;-142.75;100.00
41632;BME280;37452;51.938;4.624;2023-04-28T12:05:07;76204.16;;;-142.75;100.00
41632;BME280;37452;51.938;4.624;2023-04-28T12:07:40;76217.94;;;-142.75;100.00
41632;BME280;37452;51.938;4.624;2023-04-28T12:10:10;76214.00;;;-142.75;100.00
41632;BME280;37452;51.938;4.624;2023-04-28T12:12:36;76208.09;;;-142.75;100.00
41632;BME280;37452;51.938;4.624;2023-04-28T12:15:02;76194.34;;;-142.75;100.00
41632;BME280;37452;51.938;4.624;2023-04-28T12:17:34;76200.25;;;-142.75;100.00
41632;BME280;37452;51.938;4.624;2023-04-28T12:20:01;76212.03;;;-142.75;100.00
41632;BME280;37452;51.938;4.624;2023-04-28T12:22:26;76202.19;;;-142.75;100.00
41632;BME280;37452;51.938;4.624;2023-04-28T12:27:26;76212.03;;;-142.75;100.00
41632;BME280;37452;51.938;4.624;2023-04-28T12:29:53;76188.44;;;-142.75;100.00
41632;BME280;37452;51.938;4.624;2023-04-28T12:32:25;76184.50;;;-142.75;100.00
41632;BME280;37452;51.938;4.624;2023-04-28T12:35:01;76174.66;;;-142.75;100.00
41632;BME280;37452;51.938;4.624;2023-04-28T12:37:26;76176.63;;;-142.75;100.00
41632;BME280;37452;51.938;4.624;2023-04-28T12:39:51;76184.50;;;-142.75;100.00